TimeEST,TemperatureF,Dew PointF,Humidity,Sea Level PressureIn,VisibilityMPH,Wind Direction,Wind SpeedMPH,Gust SpeedMPH,PrecipitationIn,Events,Conditions,WindDirDegrees,DateUTC
12:56 AM,45.0,37.9,76,30.42,-9999.0,Calm,Calm,-,N/A,,Clear,0,2012-11-30 05:56:00
1:56 AM,45.0,39.9,82,30.42,-9999.0,Calm,Calm,-,N/A,,Clear,0,2012-11-30 06:56:00
2:56 AM,43.0,39.0,86,30.41,-9999.0,Calm,Calm,-,N/A,,Clear,0,2012-11-30 07:56:00
3:56 AM,44.1,42.1,93,30.40,-9999.0,Calm,Calm,-,N/A,,Clear,0,2012-11-30 08:56:00
4:56 AM,45.0,42.1,90,30.40,-9999.0,NW,3.5,-,N/A,,Clear,320,2012-11-30 09:56:00
5:56 AM,45.0,41.0,86,30.41,-9999.0,NNW,3.5,-,N/A,,Clear,330,2012-11-30 10:56:00
6:56 AM,44.1,43.0,96,30.42,-9999.0,Calm,Calm,-,N/A,,Clear,0,2012-11-30 11:56:00
7:56 AM,42.1,39.9,92,30.42,-9999.0,Calm,Calm,-,N/A,,Clear,0,2012-11-30 12:56:00
8:56 AM,48.9,44.1,83,30.43,-9999.0,Calm,Calm,-,N/A,,Clear,0,2012-11-30 13:56:00
9:56 AM,53.1,39.9,61,30.45,-9999.0,ENE,3.5,-,N/A,,Scattered Clouds,70,2012-11-30 14:56:00
10:56 AM,55.0,39.9,57,30.44,10.0,ENE,4.6,-,N/A,,Scattered Clouds,60,2012-11-30 15:56:00
11:56 AM,55.0,37.9,53,30.40,10.0,East,4.6,-,N/A,,Clear,80,2012-11-30 16:56:00
12:56 PM,55.0,41.0,59,30.38,10.0,ENE,5.8,-,N/A,,Clear,70,2012-11-30 17:56:00
1:56 PM,55.9,37.0,49,30.36,10.0,NE,6.9,-,N/A,,Clear,50,2012-11-30 18:56:00
2:56 PM,55.0,39.0,55,30.35,10.0,NE,6.9,-,N/A,,Clear,50,2012-11-30 19:56:00
3:56 PM,54.0,44.1,69,30.35,10.0,ENE,3.5,-,N/A,,Clear,60,2012-11-30 20:56:00
4:56 PM,52.0,45.0,77,30.35,9.0,East,4.6,-,N/A,,Clear,80,2012-11-30 21:56:00
5:56 PM,52.0,45.0,77,30.35,10.0,East,3.5,-,N/A,,Clear,100,2012-11-30 22:56:00
6:56 PM,51.1,45.0,80,30.35,10.0,SE,3.5,-,N/A,,Clear,130,2012-11-30 23:56:00
7:56 PM,46.9,44.1,90,30.35,7.0,Calm,Calm,-,N/A,,Clear,0,2012-12-01 00:56:00
8:56 PM,46.0,42.1,86,30.36,8.0,SW,3.5,-,N/A,,Clear,230,2012-12-01 01:56:00
9:56 PM,45.0,42.1,90,30.36,7.0,West,3.5,-,N/A,,Clear,260,2012-12-01 02:56:00
10:56 PM,48.0,45.0,89,30.36,6.0,Calm,Calm,-,N/A,,Clear,0,2012-12-01 03:56:00
11:56 PM,48.0,45.0,89,30.36,8.0,Calm,Calm,-,N/A,,Clear,0,2012-12-01 04:56:00